createdAt,value
2017-08-30T00:01:36.664Z,7.57
2017-08-30T00:04:04.640Z,7.47
2017-08-30T00:06:32.098Z,7.50
2017-08-30T00:08:59.557Z,6.60
2017-08-30T00:11:27.013Z,6.77
2017-08-30T00:13:54.465Z,6.50
2017-08-30T00:16:21.924Z,7.47
2017-08-30T00:18:49.389Z,6.30
2017-08-30T00:21:16.845Z,6.80
2017-08-30T00:23:44.305Z,6.57
2017-08-30T00:26:23.571Z,7.27
2017-08-30T00:28:51.021Z,6.73
2017-08-30T00:31:18.473Z,7.00
2017-08-30T00:33:45.924Z,7.10
2017-08-30T00:36:13.373Z,8.33
2017-08-30T00:38:40.822Z,7.07
2017-08-30T00:41:08.266Z,6.57
2017-08-30T00:43:35.736Z,6.57
2017-08-30T00:46:03.189Z,7.13
2017-08-30T00:48:30.649Z,7.20
2017-08-30T00:50:58.100Z,6.70
2017-08-30T00:53:25.554Z,7.10
2017-08-30T00:55:53.025Z,7.23
2017-08-30T00:58:20.469Z,6.80
2017-08-30T01:00:47.938Z,7.67
2017-08-30T01:03:15.390Z,8.50
2017-08-30T01:05:42.840Z,6.67
2017-08-30T01:08:10.305Z,7.40
2017-08-30T01:10:37.765Z,8.10
2017-08-30T01:13:05.229Z,7.03
2017-08-30T01:15:32.682Z,7.20
2017-08-30T01:18:00.138Z,7.63
2017-08-30T01:20:27.584Z,7.53
2017-08-30T01:22:55.040Z,7.17
2017-08-30T01:25:22.491Z,7.93
2017-08-30T01:27:49.950Z,8.03
2017-08-30T01:30:17.416Z,6.47
2017-08-30T01:32:44.866Z,7.17
2017-08-30T01:35:12.725Z,7.20
2017-08-30T01:37:40.182Z,7.57
2017-08-30T01:40:07.642Z,7.93
2017-08-30T01:42:35.135Z,7.70
2017-08-30T01:45:02.566Z,7.17
2017-08-30T01:47:30.011Z,6.80
2017-08-30T01:49:57.443Z,7.07
2017-08-30T01:52:24.921Z,7.57
2017-08-30T01:54:52.376Z,7.50
2017-08-30T01:57:19.834Z,7.80
2017-08-30T01:59:47.276Z,7.67
2017-08-30T02:02:14.736Z,6.80
2017-08-30T02:04:43.000Z,8.30
2017-08-30T02:07:10.452Z,7.93
2017-08-30T02:09:37.909Z,7.90
2017-08-30T02:12:05.361Z,7.70
2017-08-30T02:14:32.828Z,6.67
2017-08-30T02:17:00.280Z,7.30
2017-08-30T02:19:27.738Z,7.97
2017-08-30T02:21:55.185Z,7.97
2017-08-30T02:24:22.642Z,7.57
2017-08-30T02:26:50.097Z,7.23
2017-08-30T02:29:17.562Z,7.40
2017-08-30T02:31:45.018Z,7.53
2017-08-30T02:34:12.477Z,7.80
2017-08-30T02:36:39.925Z,7.90
2017-08-30T02:39:07.373Z,7.80
2017-08-30T02:41:34.832Z,8.17
2017-08-30T02:44:02.279Z,7.83
2017-08-30T02:46:29.733Z,7.90
2017-08-30T02:48:58.133Z,8.10
2017-08-30T02:51:25.588Z,7.80
2017-08-30T02:53:53.040Z,6.77
2017-08-30T02:56:20.497Z,7.03
2017-08-30T02:58:47.958Z,7.90
2017-08-30T03:01:15.409Z,7.90
2017-08-30T03:03:42.870Z,8.47
2017-08-30T03:06:10.313Z,8.97
2017-08-30T03:08:37.769Z,7.97
2017-08-30T03:11:05.213Z,7.73
2017-08-30T03:13:32.677Z,8.43
2017-08-30T03:16:00.120Z,7.40
2017-08-30T03:18:27.573Z,7.80
2017-08-30T03:20:55.029Z,8.10
2017-08-30T03:23:22.473Z,8.30
2017-08-30T03:25:49.928Z,7.37
2017-08-30T03:28:17.388Z,8.03
2017-08-30T03:30:44.850Z,8.03
2017-08-30T03:33:12.312Z,7.50
2017-08-30T03:35:39.773Z,8.93
2017-08-30T03:38:07.228Z,8.60
2017-08-30T03:40:34.685Z,7.30
2017-08-30T03:43:02.141Z,8.10
2017-08-30T03:45:29.609Z,8.87
2017-08-30T03:47:57.072Z,8.77
2017-08-30T03:50:24.515Z,7.73
2017-08-30T03:52:51.965Z,7.83
2017-08-30T03:55:19.661Z,8.00
2017-08-30T03:57:47.286Z,8.10
2017-08-30T04:00:14.739Z,7.73
2017-08-30T04:02:42.195Z,7.40
2017-08-30T04:05:09.659Z,8.50
2017-08-30T04:07:37.127Z,7.93
2017-08-30T04:10:04.572Z,7.70
2017-08-30T04:12:32.036Z,7.93
2017-08-30T04:14:59.490Z,8.60
2017-08-30T04:17:27.212Z,8.03
2017-08-30T04:19:54.669Z,9.10
2017-08-30T04:22:22.109Z,8.40
2017-08-30T04:24:49.961Z,8.97
2017-08-30T04:27:17.422Z,7.30
2017-08-30T04:29:44.880Z,12.80
2017-08-30T04:32:12.340Z,9.90
2017-08-30T04:34:39.813Z,8.70
2017-08-30T04:37:07.270Z,8.43
2017-08-30T04:39:36.236Z,8.57
2017-08-30T04:42:03.739Z,8.20
2017-08-30T04:44:31.197Z,7.80
2017-08-30T04:46:58.657Z,7.97
2017-08-30T04:49:26.109Z,8.47
2017-08-30T04:51:53.573Z,8.43
2017-08-30T04:54:21.021Z,8.13
2017-08-30T04:56:48.516Z,9.60
2017-08-30T04:59:15.973Z,8.50
2017-08-30T05:01:43.429Z,8.17
2017-08-30T05:04:10.868Z,8.20
2017-08-30T05:06:38.344Z,8.50
2017-08-30T05:09:05.826Z,8.00
2017-08-30T05:11:33.292Z,7.60
2017-08-30T05:14:00.849Z,8.07
2017-08-30T05:16:28.305Z,8.90
2017-08-30T05:18:55.764Z,8.37
2017-08-30T05:21:23.206Z,8.37
2017-08-30T05:23:50.664Z,8.40
2017-08-30T05:26:18.110Z,8.60
2017-08-30T05:28:45.564Z,8.70
2017-08-30T05:31:13.327Z,7.73
2017-08-30T05:33:40.793Z,8.03
2017-08-30T05:36:08.792Z,8.00
2017-08-30T05:38:36.245Z,8.60
2017-08-30T05:41:03.697Z,8.00
2017-08-30T05:43:31.160Z,8.40
2017-08-30T05:46:00.377Z,8.00
2017-08-30T05:48:27.898Z,8.30
2017-08-30T05:50:55.362Z,8.10
2017-08-30T05:53:22.826Z,8.10
2017-08-30T05:55:50.305Z,8.40
2017-08-30T05:58:17.745Z,7.87
2017-08-30T06:00:45.188Z,7.80
2017-08-30T06:03:12.673Z,8.23
2017-08-30T06:05:40.125Z,8.47
2017-08-30T06:08:07.589Z,8.07
2017-08-30T06:10:35.042Z,7.93
2017-08-30T06:13:02.513Z,9.27
2017-08-30T06:15:29.968Z,9.57
2017-08-30T06:17:57.417Z,8.83
2017-08-30T06:20:24.876Z,8.53
2017-08-30T06:22:52.365Z,8.57
2017-08-30T06:25:19.825Z,8.07
2017-08-30T06:27:49.077Z,8.40
2017-08-30T06:30:16.540Z,8.80
2017-08-30T06:32:43.992Z,8.33
2017-08-30T06:35:11.541Z,7.67
2017-08-30T06:37:38.997Z,7.77
2017-08-30T06:40:06.558Z,9.50
2017-08-30T06:42:34.023Z,8.10
2017-08-30T06:45:01.588Z,8.97
2017-08-30T06:47:29.046Z,8.73
2017-08-30T06:49:56.496Z,8.30
2017-08-30T06:52:23.959Z,7.70
2017-08-30T06:54:51.421Z,7.70
2017-08-30T06:57:18.868Z,6.77
2017-08-30T06:59:46.321Z,8.10
2017-08-30T07:02:13.789Z,8.47
2017-08-30T07:04:41.429Z,8.43
2017-08-30T07:07:08.880Z,8.03
2017-08-30T07:09:36.413Z,8.10
2017-08-30T07:12:03.877Z,8.20
2017-08-30T07:14:31.311Z,7.60
2017-08-30T07:16:58.776Z,8.47
2017-08-30T07:19:26.237Z,8.20
2017-08-30T07:21:53.684Z,8.20
2017-08-30T07:24:21.422Z,8.00
2017-08-30T07:26:48.868Z,8.30
2017-08-30T07:29:16.426Z,8.20
2017-08-30T07:31:43.868Z,7.87
2017-08-30T07:34:11.335Z,8.80
2017-08-30T07:36:38.785Z,8.50
2017-08-30T07:39:06.294Z,8.40
2017-08-30T07:41:33.762Z,7.70
2017-08-30T07:44:01.215Z,7.60
2017-08-30T07:46:28.676Z,9.40
2017-08-30T07:48:56.134Z,8.03
2017-08-30T07:51:23.593Z,8.27
2017-08-30T07:53:51.057Z,8.60
2017-08-30T07:56:18.519Z,8.07
2017-08-30T07:58:45.961Z,8.47
2017-08-30T08:01:13.421Z,8.80
2017-08-30T08:03:40.908Z,9.40
2017-08-30T08:06:08.361Z,8.80
2017-08-30T08:08:36.279Z,7.83
2017-08-30T08:11:03.732Z,7.70
2017-08-30T08:13:31.444Z,8.80
2017-08-30T08:15:58.901Z,8.70
2017-08-30T08:18:26.374Z,8.37
2017-08-30T08:20:53.826Z,8.87
2017-08-30T08:23:21.275Z,7.97
2017-08-30T08:25:48.728Z,8.33
2017-08-30T08:28:16.561Z,8.80
2017-08-30T08:30:44.035Z,8.20
2017-08-30T08:33:11.495Z,9.00
2017-08-30T08:35:38.948Z,8.40
2017-08-30T08:38:06.389Z,7.87
2017-08-30T08:40:33.857Z,9.60
2017-08-30T08:43:01.316Z,9.00
2017-08-30T08:45:28.778Z,9.00
2017-08-30T08:47:56.246Z,8.40
2017-08-30T08:50:23.711Z,8.63
2017-08-30T08:52:51.176Z,8.73
2017-08-30T08:55:18.628Z,8.77
2017-08-30T08:57:46.082Z,8.40
2017-08-30T09:00:14.124Z,8.27
2017-08-30T09:02:41.580Z,8.77
2017-08-30T09:05:09.046Z,10.00
2017-08-30T09:07:36.504Z,8.27
2017-08-30T09:10:03.982Z,8.77
2017-08-30T09:12:31.500Z,9.33
2017-08-30T09:14:58.965Z,8.20
2017-08-30T09:17:26.426Z,8.60
2017-08-30T09:19:53.893Z,9.37
2017-08-30T09:22:21.345Z,9.00
2017-08-30T09:24:48.810Z,8.50
2017-08-30T09:27:16.272Z,8.03
2017-08-30T09:29:43.704Z,8.60
2017-08-30T09:32:11.206Z,9.60
2017-08-30T09:34:38.648Z,8.63
2017-08-30T09:37:06.110Z,8.67
2017-08-30T09:39:33.560Z,8.00
2017-08-30T09:42:01.020Z,9.10
2017-08-30T09:44:28.492Z,8.93
2017-08-30T09:46:55.945Z,8.40
2017-08-30T09:49:23.428Z,8.33
2017-08-30T09:51:50.881Z,9.07
2017-08-30T09:54:18.348Z,9.40
2017-08-30T09:56:45.860Z,8.63
2017-08-30T09:59:13.277Z,9.10
2017-08-30T10:01:40.745Z,9.00
2017-08-30T10:04:08.204Z,9.23
2017-08-30T10:06:35.661Z,8.80
2017-08-30T10:09:03.130Z,7.90
2017-08-30T10:11:30.609Z,9.03
2017-08-30T10:13:58.166Z,8.80
2017-08-30T10:16:25.625Z,9.23
2017-08-30T10:18:53.935Z,9.60
2017-08-30T10:21:21.392Z,9.50
2017-08-30T10:23:48.937Z,8.93
2017-08-30T10:26:16.393Z,9.10
2017-08-30T10:28:43.854Z,9.87
2017-08-30T10:31:11.308Z,9.60
2017-08-30T10:33:38.797Z,9.40
2017-08-30T10:36:06.359Z,8.50
2017-08-30T10:38:33.808Z,8.97
2017-08-30T10:41:01.268Z,10.73
2017-08-30T10:43:28.713Z,9.93
2017-08-30T10:45:56.174Z,9.90
2017-08-30T10:48:23.617Z,9.57
2017-08-30T10:50:51.081Z,9.10
2017-08-30T10:53:18.541Z,9.10
2017-08-30T10:55:46.061Z,10.67
2017-08-30T10:58:13.575Z,10.20
2017-08-30T11:00:41.033Z,8.90
2017-08-30T11:03:08.562Z,8.67
2017-08-30T11:05:36.024Z,9.40
2017-08-30T11:08:03.473Z,8.87
2017-08-30T11:10:30.921Z,8.80
2017-08-30T11:13:04.266Z,8.37
2017-08-30T11:15:31.718Z,9.20
2017-08-30T11:17:59.177Z,7.90
2017-08-30T11:20:26.636Z,9.40
2017-08-30T11:22:54.085Z,8.97
2017-08-30T11:25:21.541Z,9.10
2017-08-30T11:27:49.005Z,8.50
2017-08-30T11:30:16.467Z,8.90
2017-08-30T11:32:43.928Z,8.80
2017-08-30T11:35:12.687Z,8.70
2017-08-30T11:37:40.129Z,8.07
2017-08-30T11:40:07.585Z,9.97
2017-08-30T11:42:35.047Z,9.03
2017-08-30T11:45:02.475Z,8.73
2017-08-30T11:47:29.936Z,9.20
2017-08-30T11:49:57.394Z,9.63
2017-08-30T11:52:24.856Z,9.20
2017-08-30T11:54:52.323Z,9.17
2017-08-30T11:57:19.773Z,9.63
2017-08-30T11:59:47.261Z,8.67
2017-08-30T12:02:14.715Z,8.47
2017-08-30T12:04:42.166Z,8.90
2017-08-30T12:07:09.655Z,10.67
2017-08-30T12:09:37.105Z,10.03
2017-08-30T12:12:04.567Z,7.40
2017-08-30T12:14:32.026Z,8.53
2017-08-30T12:16:59.484Z,9.47
2017-08-30T12:19:26.948Z,9.17
2017-08-30T12:21:54.414Z,8.70
2017-08-30T12:24:21.859Z,10.00
2017-08-30T12:26:49.323Z,8.53
2017-08-30T12:29:16.769Z,8.00
2017-08-30T12:31:44.236Z,8.33
2017-08-30T12:34:11.708Z,8.17
2017-08-30T12:36:44.939Z,8.60
2017-08-30T12:39:18.129Z,9.03
2017-08-30T12:41:45.591Z,8.17
2017-08-30T12:44:13.036Z,7.30
2017-08-30T12:46:40.496Z,8.53
2017-08-30T12:49:07.973Z,7.77
2017-08-30T12:51:35.424Z,8.57
2017-08-30T12:54:02.899Z,9.10
2017-08-30T12:56:30.353Z,9.07
2017-08-30T12:58:57.801Z,7.90
2017-08-30T13:01:25.259Z,8.30
2017-08-30T13:03:52.727Z,8.80
2017-08-30T13:06:20.181Z,8.40
2017-08-30T13:08:47.642Z,8.27
2017-08-30T13:11:15.105Z,8.70
2017-08-30T13:13:42.569Z,9.77
2017-08-30T13:16:10.029Z,8.70
2017-08-30T13:18:37.492Z,8.70
2017-08-30T13:21:04.941Z,9.10
2017-08-30T13:23:32.411Z,11.13
2017-08-30T13:25:59.871Z,9.40
2017-08-30T13:28:27.322Z,11.00
2017-08-30T13:30:54.769Z,11.43
2017-08-30T13:33:22.235Z,10.30
2017-08-30T13:35:49.684Z,11.83
2017-08-30T13:38:17.144Z,10.77
2017-08-30T13:40:44.606Z,11.13
2017-08-30T13:43:12.073Z,10.40
2017-08-30T13:45:39.532Z,10.90
2017-08-30T13:48:06.995Z,10.63
2017-08-30T13:50:34.467Z,11.60
2017-08-30T13:53:01.924Z,11.30
2017-08-30T13:55:29.388Z,10.47
2017-08-30T13:57:56.869Z,11.03
2017-08-30T14:00:24.323Z,10.83
2017-08-30T14:02:51.793Z,10.20
2017-08-30T14:05:20.028Z,11.07
2017-08-30T14:07:47.496Z,11.47
2017-08-30T14:10:14.953Z,12.30
2017-08-30T14:12:42.422Z,11.17
2017-08-30T14:15:09.871Z,9.70
2017-08-30T14:17:37.332Z,10.27
2017-08-30T14:20:04.797Z,10.57
2017-08-30T14:22:32.261Z,10.23
2017-08-30T14:24:59.729Z,10.67
2017-08-30T14:27:27.207Z,10.73
2017-08-30T14:29:54.658Z,9.77
2017-08-30T14:32:22.101Z,10.67
2017-08-30T14:34:49.571Z,10.57
2017-08-30T14:37:17.041Z,9.40
2017-08-30T14:39:44.513Z,11.00
2017-08-30T14:42:11.973Z,11.57
2017-08-30T14:44:39.443Z,10.10
2017-08-30T14:47:06.890Z,9.73
2017-08-30T14:49:34.357Z,10.87
2017-08-30T14:52:02.366Z,10.00
2017-08-30T14:54:29.825Z,10.30
2017-08-30T14:56:57.276Z,9.83
2017-08-30T14:59:24.742Z,10.33
2017-08-30T15:01:52.204Z,8.87
2017-08-30T15:04:19.674Z,10.10
2017-08-30T15:06:47.138Z,9.93
2017-08-30T15:09:14.632Z,10.20
2017-08-30T15:11:42.085Z,10.10
2017-08-30T15:14:10.788Z,10.70
2017-08-30T15:16:38.250Z,9.23
2017-08-30T15:19:05.729Z,9.53
2017-08-30T15:21:33.188Z,10.30
2017-08-30T15:24:00.648Z,9.47
2017-08-30T15:26:28.127Z,9.10
2017-08-30T15:28:55.574Z,9.10
2017-08-30T15:31:23.044Z,9.90
2017-08-30T15:33:50.514Z,9.70
2017-08-30T15:36:17.968Z,9.80
2017-08-30T15:38:45.461Z,10.13
2017-08-30T15:41:12.941Z,9.87
2017-08-30T15:43:40.400Z,9.60
2017-08-30T15:46:07.844Z,8.90
2017-08-30T15:48:35.313Z,10.00
2017-08-30T15:51:02.762Z,9.30
2017-08-30T15:53:30.213Z,9.83
2017-08-30T15:55:57.669Z,9.73
2017-08-30T15:58:25.121Z,9.27
2017-08-30T16:00:52.560Z,9.70
2017-08-30T16:03:20.031Z,9.67
2017-08-30T16:05:47.497Z,9.37
2017-08-30T16:08:14.953Z,9.57
2017-08-30T16:10:42.413Z,8.80
2017-08-30T16:13:09.854Z,8.90
2017-08-30T16:15:37.320Z,10.43
2017-08-30T16:18:04.777Z,9.10
2017-08-30T16:20:32.239Z,9.63
2017-08-30T16:22:59.680Z,10.00
2017-08-30T16:25:27.140Z,9.70
2017-08-30T16:27:54.606Z,9.13
2017-08-30T16:30:22.071Z,9.17
2017-08-30T16:32:49.532Z,9.53
2017-08-30T16:35:16.995Z,9.23
2017-08-30T16:37:44.453Z,8.70
2017-08-30T16:40:11.897Z,9.13
2017-08-30T16:42:39.354Z,8.67
2017-08-30T16:45:06.818Z,9.03
2017-08-30T16:47:34.280Z,9.20
2017-08-30T16:50:01.745Z,8.53
2017-08-30T16:52:29.188Z,8.47
2017-08-30T16:54:56.652Z,9.10
2017-08-30T16:57:24.121Z,8.63
2017-08-30T16:59:51.593Z,8.90
2017-08-30T17:02:19.046Z,8.57
2017-08-30T17:04:46.511Z,8.00
2017-08-30T17:07:13.965Z,9.40
2017-08-30T17:09:41.448Z,8.90
2017-08-30T17:12:08.901Z,8.83
2017-08-30T17:14:36.353Z,9.07
2017-08-30T17:17:03.813Z,8.70
2017-08-30T17:19:31.258Z,9.40
2017-08-30T17:21:58.737Z,9.50
2017-08-30T17:24:26.931Z,9.10
2017-08-30T17:26:54.402Z,8.67
2017-08-30T17:29:21.853Z,8.60
2017-08-30T17:31:49.321Z,8.53
2017-08-30T17:34:16.790Z,9.30
2017-08-30T17:36:44.258Z,10.10
2017-08-30T17:39:11.725Z,8.93
2017-08-30T17:41:39.189Z,8.93
2017-08-30T17:44:06.645Z,10.50
2017-08-30T17:46:34.113Z,9.63
2017-08-30T17:49:01.574Z,8.67
2017-08-30T17:51:29.032Z,9.27
2017-08-30T17:53:56.504Z,9.03
2017-08-30T17:56:23.986Z,9.00
2017-08-30T17:58:51.445Z,9.80
2017-08-30T18:01:18.897Z,9.10
2017-08-30T18:03:46.369Z,8.70
2017-08-30T18:06:13.829Z,9.30
2017-08-30T18:08:41.306Z,9.00
2017-08-30T18:11:08.757Z,9.33
2017-08-30T18:13:36.210Z,8.67
2017-08-30T18:16:03.664Z,8.53
2017-08-30T18:18:31.124Z,9.77
2017-08-30T18:20:58.588Z,9.80
2017-08-30T18:23:26.032Z,9.07
2017-08-30T18:25:53.488Z,9.60
2017-08-30T18:28:20.943Z,8.90
2017-08-30T18:30:48.396Z,9.53
2017-08-30T18:33:15.844Z,8.93
2017-08-30T18:35:43.313Z,9.63
2017-08-30T18:38:10.768Z,10.17
2017-08-30T18:40:38.228Z,9.53
2017-08-30T18:43:05.692Z,9.23
2017-08-30T18:45:33.162Z,9.70
2017-08-30T18:48:00.607Z,8.27
2017-08-30T18:50:28.056Z,10.77
2017-08-30T18:52:55.517Z,9.80
2017-08-30T18:55:22.973Z,9.10
2017-08-30T18:57:50.436Z,10.23
2017-08-30T19:00:17.887Z,10.10
2017-08-30T19:02:45.353Z,10.20
2017-08-30T19:05:12.812Z,10.20
2017-08-30T19:07:40.274Z,10.47
2017-08-30T19:10:07.736Z,10.50
2017-08-30T19:12:35.206Z,11.77
2017-08-30T19:15:02.672Z,12.03
2017-08-30T19:17:30.133Z,12.10
2017-08-30T19:19:57.596Z,15.03
2017-08-30T19:22:25.065Z,16.40
2017-08-30T19:24:52.532Z,18.97
2017-08-30T19:27:20.059Z,14.03
2017-08-30T19:29:47.520Z,11.30
2017-08-30T19:32:14.972Z,9.87
2017-08-30T19:34:42.437Z,9.30
2017-08-30T19:37:10.660Z,9.80
2017-08-30T19:39:38.131Z,9.10
2017-08-30T19:42:05.593Z,8.40
2017-08-30T19:44:33.041Z,8.50
2017-08-30T19:47:00.506Z,8.47
2017-08-30T19:49:27.961Z,9.47
2017-08-30T19:51:55.444Z,8.37
2017-08-30T19:54:22.897Z,9.57
2017-08-30T19:56:50.357Z,8.37
2017-08-30T19:59:17.803Z,9.87
2017-08-30T20:01:45.246Z,9.30
2017-08-30T20:04:12.696Z,10.07
2017-08-30T20:06:40.172Z,9.40
2017-08-30T20:09:07.624Z,9.47
2017-08-30T20:11:35.073Z,8.33
2017-08-30T20:14:02.545Z,9.30
2017-08-30T20:16:30.000Z,10.17
2017-08-30T20:18:57.463Z,9.63
2017-08-30T20:21:24.909Z,9.80
2017-08-30T20:23:52.372Z,10.97
2017-08-30T20:26:19.822Z,9.07
2017-08-30T20:28:47.280Z,10.07
2017-08-30T20:31:14.725Z,9.50
2017-08-30T20:33:42.189Z,10.07
2017-08-30T20:36:09.653Z,9.30
2017-08-30T20:38:37.121Z,10.00
2017-08-30T20:41:04.577Z,8.80
2017-08-30T20:43:32.029Z,9.07
2017-08-30T20:45:59.488Z,9.20
2017-08-30T20:48:26.937Z,9.93
2017-08-30T20:50:54.398Z,8.80
2017-08-30T20:53:21.841Z,9.13
2017-08-30T20:55:49.292Z,9.37
2017-08-30T20:58:16.754Z,7.70
2017-08-30T21:00:44.202Z,8.87
2017-08-30T21:03:11.644Z,9.20
2017-08-30T21:05:39.101Z,9.63
2017-08-30T21:08:06.565Z,9.23
2017-08-30T21:10:34.029Z,9.53
2017-08-30T21:15:19.720Z,7.53
2017-08-30T21:17:47.172Z,8.27
2017-08-30T21:20:15.248Z,7.10
2017-08-30T21:22:42.714Z,8.17
2017-08-30T21:25:10.173Z,7.03
2017-08-30T21:27:37.621Z,6.90
2017-08-30T21:30:05.065Z,6.30
2017-08-30T21:32:32.520Z,5.70
2017-08-30T21:35:00.361Z,7.27
2017-08-30T21:37:27.825Z,6.70
2017-08-30T21:39:55.289Z,7.07
2017-08-30T21:42:22.748Z,6.13
2017-08-30T21:44:50.200Z,7.83
2017-08-30T21:47:17.664Z,7.47
2017-08-30T21:49:45.128Z,7.80
2017-08-30T21:52:12.596Z,7.27
2017-08-30T21:54:40.058Z,7.67
2017-08-30T21:57:07.529Z,6.40
2017-08-30T21:59:34.989Z,7.40
2017-08-30T22:02:02.442Z,6.63
2017-08-30T22:04:29.892Z,6.83
2017-08-30T22:06:57.352Z,7.03
2017-08-30T22:09:24.821Z,6.87
2017-08-30T22:11:52.265Z,7.07
2017-08-30T22:14:19.712Z,6.13
2017-08-30T22:16:47.177Z,7.80
2017-08-30T22:19:14.644Z,6.77
2017-08-30T22:21:42.093Z,6.97
2017-08-30T22:24:09.536Z,7.17
2017-08-30T22:26:36.983Z,5.53
2017-08-30T22:29:04.438Z,6.40
2017-08-30T22:31:31.903Z,6.47
2017-08-30T22:33:59.360Z,6.10
2017-08-30T22:36:26.816Z,7.70
2017-08-30T22:38:54.276Z,5.80
2017-08-30T22:41:21.754Z,6.17
2017-08-30T22:43:49.230Z,5.70
2017-08-30T22:46:16.681Z,5.80
2017-08-30T22:48:44.137Z,5.30
2017-08-30T22:51:11.580Z,5.13
2017-08-30T22:53:39.053Z,6.40
2017-08-30T22:56:06.504Z,5.97
2017-08-30T22:58:33.949Z,5.40
2017-08-30T23:01:01.393Z,6.07
2017-08-30T23:03:28.852Z,5.80
2017-08-30T23:05:56.313Z,6.20
2017-08-30T23:08:23.771Z,6.30
2017-08-30T23:10:51.213Z,5.10
2017-08-30T23:13:18.669Z,6.17
2017-08-30T23:15:46.112Z,6.27
2017-08-30T23:18:13.576Z,5.70
2017-08-30T23:20:41.033Z,6.90
2017-08-30T23:23:08.477Z,6.00
2017-08-30T23:25:35.930Z,7.20
2017-08-30T23:28:03.387Z,6.63
2017-08-30T23:30:30.844Z,5.60
2017-08-30T23:32:58.280Z,6.07
2017-08-30T23:35:25.727Z,6.43
2017-08-30T23:37:53.184Z,6.07
2017-08-30T23:40:20.636Z,7.00
2017-08-30T23:42:48.083Z,5.17
2017-08-30T23:45:15.539Z,6.50
2017-08-30T23:47:42.988Z,7.20
2017-08-30T23:50:10.427Z,7.20
2017-08-30T23:52:37.869Z,6.33
2017-08-30T23:55:05.320Z,6.17
2017-08-30T23:57:32.773Z,6.30
